Time;durP1;ratioP1;P1;durP2;ratioP2;P2;SDS_P1;SDS_P2;PMS_P1;PMS_P2;Temp;Humidity;BMP_temperature;BMP_pressure;BME280_temperature;BME280_humidity;BME280_pressure;Samples;Min_cycle;Max_cycle;Signal;HPM_P1;HPM_P2
2023/12/15 00:00:25;;;;;;;7.03;6.43;;;;;;;;;;5043106;28;20264;-76
2023/12/15 00:02:52;;;;;;;4.00;3.70;;;;;;;;;;5027357;28;20307;-77
2023/12/15 00:05:20;;;;;;;2.67;2.40;;;;;;;;;;5048167;28;20214;-79
2023/12/15 00:07:47;;;;;;;3.33;3.07;;;;;;;;;;5042778;28;20217;-80
2023/12/15 00:10:14;;;;;;;2.37;2.27;;;;;;;;;;5046371;28;20218;-81
2023/12/15 00:12:42;;;;;;;2.00;1.90;;;;;;;;;;5044482;28;20202;-78
2023/12/15 00:15:10;;;;;;;2.23;2.13;;;;;;;;;;5043915;28;20228;-79
2023/12/15 00:17:37;;;;;;;12.13;9.33;;;;;;;;;;5046953;28;20718;-77
2023/12/15 00:20:05;;;;;;;3.30;3.00;;;;;;;;;;5040389;28;20289;-78
2023/12/15 00:22:33;;;;;;;6.03;4.10;;;;;;;;;;5046121;28;20213;-76
2023/12/15 00:25:00;;;;;;;9.53;5.50;;;;;;;;;;5043835;28;20229;-79
2023/12/15 00:27:27;;;;;;;9.07;5.70;;;;;;;;;;5027998;28;20213;-79
2023/12/15 00:29:54;;;;;;;4.30;3.53;;;;;;;;;;5038692;28;20222;-79
2023/12/15 00:32:21;;;;;;;23.33;12.33;;;;;;;;;;5046960;28;20279;-76
2023/12/15 00:34:49;;;;;;;9.93;7.00;;;;;;;;;;5067156;28;21399;-74
2023/12/15 00:37:16;;;;;;;14.73;9.60;;;;;;;;;;5069158;28;20191;-75
2023/12/15 00:39:43;;;;;;;6.17;4.77;;;;;;;;;;5076267;28;20225;-76
2023/12/15 00:42:10;;;;;;;4.43;3.87;;;;;;;;;;5073071;28;20198;-76
2023/12/15 00:44:37;;;;;;;5.23;4.27;;;;;;;;;;5057813;28;20232;-77
2023/12/15 00:47:05;;;;;;;3.17;2.97;;;;;;;;;;5075423;28;20193;-78
2023/12/15 00:49:32;;;;;;;3.90;3.50;;;;;;;;;;5041062;28;20590;-77
2023/12/15 00:51:59;;;;;;;11.57;6.70;;;;;;;;;;5037778;28;20209;-77
2023/12/15 00:54:26;;;;;;;6.90;4.50;;;;;;;;;;5045668;28;20688;-79
2023/12/15 00:56:53;;;;;;;16.53;10.07;;;;;;;;;;5036969;28;20256;-80
2023/12/15 00:59:21;;;;;;;6.60;4.60;;;;;;;;;;5048798;28;20210;-80
2023/12/15 01:01:48;;;;;;;4.63;3.93;;;;;;;;;;5052044;28;20205;-76
2023/12/15 01:04:15;;;;;;;5.60;4.30;;;;;;;;;;5047107;28;20230;-77
2023/12/15 01:06:42;;;;;;;6.03;5.03;;;;;;;;;;5042988;28;20617;-78
2023/12/15 01:09:10;;;;;;;25.33;14.10;;;;;;;;;;5049426;28;20629;-78
2023/12/15 01:11:37;;;;;;;28.43;14.13;;;;;;;;;;5045843;28;20214;-77
2023/12/15 01:14:04;;;;;;;8.67;6.93;;;;;;;;;;5044500;28;20223;-78
2023/12/15 01:16:31;;;;;;;14.87;8.87;;;;;;;;;;5047983;28;20198;-77
2023/12/15 01:18:58;;;;;;;6.13;4.90;;;;;;;;;;5027854;28;20206;-78
2023/12/15 01:21:26;;;;;;;6.13;4.73;;;;;;;;;;5042812;28;20641;-78
2023/12/15 01:23:53;;;;;;;6.27;5.30;;;;;;;;;;5027960;28;25146;-77
2023/12/15 01:26:20;;;;;;;4.80;4.30;;;;;;;;;;5045002;28;20738;-78
2023/12/15 01:28:47;;;;;;;5.90;4.87;;;;;;;;;;5046465;28;20216;-77
2023/12/15 01:31:15;;;;;;;6.47;4.93;;;;;;;;;;5038269;28;20222;-79
2023/12/15 01:33:42;;;;;;;4.97;4.47;;;;;;;;;;5044041;28;20229;-78
2023/12/15 01:36:09;;;;;;;4.93;4.17;;;;;;;;;;5049430;28;20228;-78
2023/12/15 01:38:36;;;;;;;7.13;4.87;;;;;;;;;;5024214;28;20194;-78
2023/12/15 01:41:04;;;;;;;7.77;5.77;;;;;;;;;;5029452;28;20419;-78
2023/12/15 01:43:31;;;;;;;8.03;6.27;;;;;;;;;;5039890;28;20230;-78
2023/12/15 01:45:58;;;;;;;7.30;6.00;;;;;;;;;;5041225;28;20644;-81
2023/12/15 01:48:38;;;;;;;9.90;6.53;;;;;;;;;;5027656;28;20206;-78
2023/12/15 01:51:06;;;;;;;9.53;6.90;;;;;;;;;;5025519;28;20303;-76
2023/12/15 01:53:34;;;;;;;8.03;6.50;;;;;;;;;;5035779;28;20290;-76
2023/12/15 01:56:01;;;;;;;8.87;7.20;;;;;;;;;;5031737;28;20222;-79
2023/12/15 01:58:28;;;;;;;7.67;6.47;;;;;;;;;;5042279;28;20559;-78
2023/12/15 02:00:55;;;;;;;10.40;7.70;;;;;;;;;;5040489;28;20645;-78
2023/12/15 02:03:23;;;;;;;9.90;7.53;;;;;;;;;;5030149;28;20222;-78
2023/12/15 02:05:51;;;;;;;9.63;6.80;;;;;;;;;;5028659;28;20279;-79
2023/12/15 02:08:18;;;;;;;8.87;7.33;;;;;;;;;;5025912;28;20222;-78
2023/12/15 02:10:46;;;;;;;9.40;7.50;;;;;;;;;;5039645;28;20214;-79
2023/12/15 02:13:13;;;;;;;9.27;8.07;;;;;;;;;;5040119;28;20218;-79
2023/12/15 02:15:40;;;;;;;11.07;8.47;;;;;;;;;;5040143;28;20303;-78
2023/12/15 02:18:08;;;;;;;9.47;7.73;;;;;;;;;;5044827;28;20230;-78
2023/12/15 02:20:35;;;;;;;10.00;7.30;;;;;;;;;;5038047;28;20203;-78
2023/12/15 02:23:02;;;;;;;10.27;8.03;;;;;;;;;;5038930;28;20197;-79
2023/12/15 02:25:29;;;;;;;9.13;7.80;;;;;;;;;;5041733;28;20202;-76
2023/12/15 02:27:57;;;;;;;8.83;7.23;;;;;;;;;;5038432;28;20284;-78
2023/12/15 02:30:24;;;;;;;8.63;7.13;;;;;;;;;;5026329;28;20211;-78
2023/12/15 02:32:51;;;;;;;7.57;6.43;;;;;;;;;;5043309;28;20207;-79
2023/12/15 02:35:19;;;;;;;11.33;7.50;;;;;;;;;;5037782;28;20230;-81
2023/12/15 02:37:46;;;;;;;8.90;6.97;;;;;;;;;;5022320;28;20207;-79
2023/12/15 02:40:13;;;;;;;7.77;6.67;;;;;;;;;;5040448;28;20296;-79
2023/12/15 02:42:40;;;;;;;9.73;7.40;;;;;;;;;;5044449;28;20225;-76
2023/12/15 02:45:08;;;;;;;8.30;6.80;;;;;;;;;;5044034;28;20222;-78
2023/12/15 02:47:35;;;;;;;9.70;7.67;;;;;;;;;;5038307;28;20257;-78
2023/12/15 02:50:03;;;;;;;10.00;7.27;;;;;;;;;;5024288;28;20202;-79
2023/12/15 02:52:30;;;;;;;8.50;6.80;;;;;;;;;;5037779;28;20205;-78
2023/12/15 02:54:57;;;;;;;6.83;5.80;;;;;;;;;;5037532;28;20290;-76
2023/12/15 02:57:25;;;;;;;6.50;5.43;;;;;;;;;;5040662;28;20277;-79
2023/12/15 02:59:52;;;;;;;6.47;5.40;;;;;;;;;;5037417;28;20222;-78
2023/12/15 03:02:19;;;;;;;6.50;5.37;;;;;;;;;;5041116;28;20198;-79
2023/12/15 03:04:46;;;;;;;6.80;5.87;;;;;;;;;;5042370;28;20671;-79
2023/12/15 03:07:13;;;;;;;7.57;5.70;;;;;;;;;;5023243;28;20676;-80
2023/12/15 03:09:41;;;;;;;6.97;5.17;;;;;;;;;;5043998;28;20202;-78
2023/12/15 03:12:08;;;;;;;5.93;5.33;;;;;;;;;;5040954;28;20244;-77
2023/12/15 03:14:36;;;;;;;5.93;5.07;;;;;;;;;;5043294;28;20226;-79
2023/12/15 03:17:04;;;;;;;7.73;6.27;;;;;;;;;;5041281;28;20195;-76
2023/12/15 03:19:31;;;;;;;9.67;5.67;;;;;;;;;;5048475;28;20202;-79
2023/12/15 03:21:58;;;;;;;5.80;5.20;;;;;;;;;;5051936;28;20202;-80
2023/12/15 03:24:26;;;;;;;5.73;5.17;;;;;;;;;;5031824;28;20225;-76
2023/12/15 03:26:53;;;;;;;5.87;5.10;;;;;;;;;;5049333;28;20287;-77
2023/12/15 03:29:21;;;;;;;6.30;5.27;;;;;;;;;;5042407;28;20676;-77
2023/12/15 03:31:48;;;;;;;6.67;5.73;;;;;;;;;;5048895;28;20262;-79
2023/12/15 03:34:15;;;;;;;36.47;6.73;;;;;;;;;;5049461;28;20287;-78
2023/12/15 03:36:42;;;;;;;5.90;5.23;;;;;;;;;;5046832;28;20222;-77
2023/12/15 03:39:10;;;;;;;6.50;5.80;;;;;;;;;;5042832;28;20199;-79
2023/12/15 03:41:37;;;;;;;6.17;5.17;;;;;;;;;;5038267;28;20260;-77
2023/12/15 03:44:04;;;;;;;5.30;4.23;;;;;;;;;;5042450;28;20249;-76
2023/12/15 03:46:31;;;;;;;5.00;4.50;;;;;;;;;;5040351;28;20225;-78
2023/12/15 03:48:58;;;;;;;5.17;4.67;;;;;;;;;;5040931;28;20206;-77
2023/12/15 03:51:26;;;;;;;5.17;4.67;;;;;;;;;;5043154;28;20577;-77
2023/12/15 03:53:53;;;;;;;5.70;3.87;;;;;;;;;;5042238;28;20968;-78
2023/12/15 03:56:24;;;;;;;4.10;3.60;;;;;;;;;;5048810;28;20230;-77
2023/12/15 03:58:52;;;;;;;3.80;3.47;;;;;;;;;;5039219;28;20750;-78
2023/12/15 04:01:19;;;;;;;3.70;3.40;;;;;;;;;;5037207;28;20297;-78
2023/12/15 04:03:47;;;;;;;3.73;3.10;;;;;;;;;;5023945;28;20726;-77
2023/12/15 04:06:14;;;;;;;3.90;3.53;;;;;;;;;;5024698;28;20206;-78
2023/12/15 04:08:42;;;;;;;4.40;3.60;;;;;;;;;;5046495;28;20248;-79
2023/12/15 04:11:09;;;;;;;4.23;3.20;;;;;;;;;;5044356;28;20210;-76
2023/12/15 04:13:37;;;;;;;3.90;3.60;;;;;;;;;;5046470;28;20233;-79
2023/12/15 04:16:05;;;;;;;4.53;3.60;;;;;;;;;;5028198;28;20602;-76
2023/12/15 04:18:33;;;;;;;4.40;4.00;;;;;;;;;;5022690;28;20224;-76
2023/12/15 04:21:03;;;;;;;4.57;4.17;;;;;;;;;;5043173;28;20194;-77
2023/12/15 04:23:31;;;;;;;4.53;4.13;;;;;;;;;;5047018;28;20309;-79
2023/12/15 04:25:59;;;;;;;5.40;4.43;;;;;;;;;;5031886;28;20205;-77
2023/12/15 04:28:27;;;;;;;4.53;4.13;;;;;;;;;;5040158;28;20234;-77
2023/12/15 04:30:54;;;;;;;4.93;4.37;;;;;;;;;;5039476;28;20871;-77
2023/12/15 04:33:21;;;;;;;7.97;7.27;;;;;;;;;;5019982;28;20222;-76
2023/12/15 04:35:48;;;;;;;14.27;12.97;;;;;;;;;;5039070;28;20214;-76
2023/12/15 04:38:16;;;;;;;6.97;6.20;;;;;;;;;;5034407;28;20222;-78
2023/12/15 04:40:43;;;;;;;6.00;5.07;;;;;;;;;;5046145;28;20284;-79
2023/12/15 04:43:10;;;;;;;12.37;11.37;;;;;;;;;;5041888;28;20621;-79
2023/12/15 04:45:38;;;;;;;5.60;4.27;;;;;;;;;;5043627;28;20206;-77
2023/12/15 04:48:05;;;;;;;5.60;4.97;;;;;;;;;;5043572;28;20551;-78
2023/12/15 04:50:32;;;;;;;4.87;4.27;;;;;;;;;;5037659;28;20212;-77
2023/12/15 04:53:04;;;;;;;5.30;4.53;;;;;;;;;;5037315;28;20688;-79
2023/12/15 04:55:31;;;;;;;5.33;4.70;;;;;;;;;;5040135;28;20226;-76
2023/12/15 04:57:58;;;;;;;6.20;5.57;;;;;;;;;;5043124;28;20616;-77
2023/12/15 05:00:26;;;;;;;11.20;10.27;;;;;;;;;;5046297;28;20206;-77
2023/12/15 05:02:53;;;;;;;6.63;4.87;;;;;;;;;;5046981;28;20619;-76
2023/12/15 05:05:20;;;;;;;5.53;5.00;;;;;;;;;;5045981;28;20210;-77
2023/12/15 05:07:48;;;;;;;5.57;4.57;;;;;;;;;;5052509;28;20209;-77
2023/12/15 05:10:15;;;;;;;5.97;5.37;;;;;;;;;;5044150;28;20213;-77
2023/12/15 05:12:42;;;;;;;6.83;5.90;;;;;;;;;;5041178;28;20273;-77
2023/12/15 05:15:10;;;;;;;6.00;5.40;;;;;;;;;;5025864;28;20764;-79
2023/12/15 05:17:37;;;;;;;5.50;4.77;;;;;;;;;;5046035;28;20210;-78
2023/12/15 05:20:05;;;;;;;5.87;4.57;;;;;;;;;;5046647;28;20228;-77
2023/12/15 05:22:32;;;;;;;5.67;4.53;;;;;;;;;;5047284;28;20571;-77
2023/12/15 05:25:00;;;;;;;6.23;4.30;;;;;;;;;;5038439;28;20594;-77
2023/12/15 05:27:27;;;;;;;4.50;4.07;;;;;;;;;;5037779;28;20225;-76
2023/12/15 05:29:54;;;;;;;4.37;3.93;;;;;;;;;;5041753;28;20594;-82
2023/12/15 05:32:21;;;;;;;4.33;3.93;;;;;;;;;;5029699;28;20217;-77
2023/12/15 05:34:49;;;;;;;4.30;3.90;;;;;;;;;;5033918;28;20244;-79
2023/12/15 05:37:16;;;;;;;4.27;3.87;;;;;;;;;;5033877;28;20784;-77
2023/12/15 05:39:47;;;;;;;4.90;3.77;;;;;;;;;;5038944;28;20804;-81
2023/12/15 05:42:14;;;;;;;5.03;4.53;;;;;;;;;;5039083;28;20544;-77
2023/12/15 05:44:41;;;;;;;5.13;4.43;;;;;;;;;;5040642;28;20223;-80
2023/12/15 05:47:09;;;;;;;5.37;4.70;;;;;;;;;;5030462;28;20206;-78
2023/12/15 05:49:40;;;;;;;7.13;4.37;;;;;;;;;;5040386;28;20202;-75
2023/12/15 05:52:08;;;;;;;4.90;4.40;;;;;;;;;;5027596;28;20203;-77
2023/12/15 05:54:39;;;;;;;6.03;4.73;;;;;;;;;;5041928;28;20221;-77
2023/12/15 05:57:06;;;;;;;5.17;4.13;;;;;;;;;;5025602;28;20218;-81
2023/12/15 05:59:37;;;;;;;4.00;3.70;;;;;;;;;;5023598;28;20271;-79
2023/12/15 06:02:05;;;;;;;5.03;4.23;;;;;;;;;;5048104;28;20198;-78
2023/12/15 06:04:32;;;;;;;5.83;5.23;;;;;;;;;;5040009;28;20222;-78
2023/12/15 06:06:59;;;;;;;8.83;8.10;;;;;;;;;;5045532;28;20210;-78
2023/12/15 06:09:27;;;;;;;5.40;4.40;;;;;;;;;;5050048;28;20260;-78
2023/12/15 06:11:54;;;;;;;6.20;5.57;;;;;;;;;;5023283;28;20206;-79
2023/12/15 06:14:22;;;;;;;5.67;5.07;;;;;;;;;;5044639;28;20611;-78
2023/12/15 06:16:49;;;;;;;5.93;5.30;;;;;;;;;;5048008;28;20309;-78
2023/12/15 06:19:16;;;;;;;5.97;4.47;;;;;;;;;;5042165;28;20203;-77
2023/12/15 06:21:44;;;;;;;6.60;5.53;;;;;;;;;;5049176;28;20641;-80
2023/12/15 06:24:11;;;;;;;6.17;5.10;;;;;;;;;;5044300;28;20295;-77
2023/12/15 06:26:38;;;;;;;5.73;5.23;;;;;;;;;;5027280;28;20222;-77
2023/12/15 06:29:05;;;;;;;8.33;5.30;;;;;;;;;;5048991;28;20644;-78
2023/12/15 06:31:33;;;;;;;7.27;5.90;;;;;;;;;;5042929;28;20315;-80
2023/12/15 06:34:00;;;;;;;7.13;5.90;;;;;;;;;;5030200;28;20217;-79
2023/12/15 06:36:27;;;;;;;6.70;5.63;;;;;;;;;;5037873;28;20739;-78
2023/12/15 06:38:58;;;;;;;6.30;5.27;;;;;;;;;;5027311;28;20198;-78
2023/12/15 06:41:25;;;;;;;5.90;5.30;;;;;;;;;;5043892;28;20333;-80
2023/12/15 06:43:52;;;;;;;7.50;5.30;;;;;;;;;;5040081;28;20225;-79
2023/12/15 06:46:20;;;;;;;5.77;4.90;;;;;;;;;;5030089;28;20342;-80
2023/12/15 06:48:47;;;;;;;6.17;5.57;;;;;;;;;;5026145;28;20215;-78
2023/12/15 06:51:15;;;;;;;7.60;5.67;;;;;;;;;;5041464;28;20213;-79
2023/12/15 06:53:42;;;;;;;6.03;5.40;;;;;;;;;;5051374;28;20256;-78
2023/12/15 06:56:09;;;;;;;7.80;5.80;;;;;;;;;;5043574;28;20234;-78
2023/12/15 06:58:37;;;;;;;6.20;5.57;;;;;;;;;;5044402;28;20198;-78
2023/12/15 07:01:04;;;;;;;7.07;6.03;;;;;;;;;;5043758;28;20285;-79
2023/12/15 07:03:32;;;;;;;8.00;5.83;;;;;;;;;;5025219;28;20599;-79
2023/12/15 07:06:01;;;;;;;6.93;5.47;;;;;;;;;;5036508;28;20207;-78
2023/12/15 07:08:28;;;;;;;7.57;6.17;;;;;;;;;;5041995;28;20202;-78
2023/12/15 07:10:56;;;;;;;8.80;6.87;;;;;;;;;;5041314;28;20317;-76
2023/12/15 07:13:23;;;;;;;13.70;8.63;;;;;;;;;;5027765;28;20269;-81
2023/12/15 07:15:50;;;;;;;12.03;7.80;;;;;;;;;;5043852;28;20220;-80
2023/12/15 07:18:17;;;;;;;7.93;6.80;;;;;;;;;;5033104;28;20202;-80
2023/12/15 07:20:45;;;;;;;11.60;7.50;;;;;;;;;;5028171;28;20202;-80
2023/12/15 07:23:12;;;;;;;9.20;6.67;;;;;;;;;;5044740;28;20734;-79
2023/12/15 07:25:39;;;;;;;9.53;7.70;;;;;;;;;;5048607;28;20230;-78
2023/12/15 07:28:06;;;;;;;7.97;7.00;;;;;;;;;;5049883;28;20268;-78
2023/12/15 07:30:33;;;;;;;18.90;14.10;;;;;;;;;;5045345;28;20214;-78
2023/12/15 07:33:01;;;;;;;17.33;13.30;;;;;;;;;;5041898;28;20206;-79
2023/12/15 07:35:28;;;;;;;13.17;10.07;;;;;;;;;;5037498;28;20288;-78
2023/12/15 07:37:59;;;;;;;11.27;8.77;;;;;;;;;;5026368;28;20218;-79
2023/12/15 07:40:28;;;;;;;10.10;8.03;;;;;;;;;;5025006;28;20206;-79
2023/12/15 07:42:57;;;;;;;13.40;10.07;;;;;;;;;;5018245;28;20202;-82
2023/12/15 07:45:25;;;;;;;10.63;7.77;;;;;;;;;;5039857;28;20198;-78
2023/12/15 07:47:52;;;;;;;12.47;9.60;;;;;;;;;;5041932;28;20828;-82
2023/12/15 07:50:20;;;;;;;10.97;8.90;;;;;;;;;;5031874;28;20294;-76
2023/12/15 07:52:47;;;;;;;9.57;7.97;;;;;;;;;;5022040;28;20210;-77
2023/12/15 07:55:17;;;;;;;49.63;31.07;;;;;;;;;;5044930;28;20226;-79
2023/12/15 07:57:44;;;;;;;18.00;11.23;;;;;;;;;;5036262;28;20227;-77
2023/12/15 08:00:12;;;;;;;11.80;9.23;;;;;;;;;;5044931;28;20199;-78
2023/12/15 08:02:39;;;;;;;9.50;7.17;;;;;;;;;;5035359;28;20614;-79
2023/12/15 08:05:07;;;;;;;9.27;7.90;;;;;;;;;;5019232;28;20650;-78
2023/12/15 08:07:34;;;;;;;10.77;8.63;;;;;;;;;;5037154;28;20203;-79
2023/12/15 08:10:02;;;;;;;8.93;7.77;;;;;;;;;;5037491;28;20237;-79
2023/12/15 08:12:29;;;;;;;7.93;7.13;;;;;;;;;;5035941;28;20202;-78
2023/12/15 08:14:56;;;;;;;9.40;7.80;;;;;;;;;;5027905;28;20700;-79
2023/12/15 08:17:24;;;;;;;9.90;7.67;;;;;;;;;;5028515;28;20222;-79
2023/12/15 08:19:52;;;;;;;10.03;8.40;;;;;;;;;;5041749;28;20198;-79
2023/12/15 08:22:19;;;;;;;10.53;8.67;;;;;;;;;;5039108;28;20247;-78
2023/12/15 08:24:47;;;;;;;12.03;9.23;;;;;;;;;;5019917;28;20594;-81
2023/12/15 08:27:16;;;;;;;10.40;8.07;;;;;;;;;;5039902;28;20206;-79
2023/12/15 08:29:43;;;;;;;11.23;9.43;;;;;;;;;;5035944;28;20210;-78
2023/12/15 08:32:10;;;;;;;12.60;8.87;;;;;;;;;;5033307;28;20510;-77
2023/12/15 08:34:39;;;;;;;10.43;8.30;;;;;;;;;;5022531;28;20222;-78
2023/12/15 08:37:07;;;;;;;13.43;9.03;;;;;;;;;;5015781;28;20728;-79
2023/12/15 08:39:34;;;;;;;14.67;9.73;;;;;;;;;;5038934;28;20202;-79
2023/12/15 08:42:01;;;;;;;9.57;8.13;;;;;;;;;;5031364;28;20202;-78
2023/12/15 08:44:28;;;;;;;12.47;8.47;;;;;;;;;;5040646;28;20630;-77
2023/12/15 08:47:01;;;;;;;10.00;8.47;;;;;;;;;;5033539;28;20261;-81
2023/12/15 08:49:28;;;;;;;10.43;8.57;;;;;;;;;;5042534;28;20273;-79
2023/12/15 08:51:56;;;;;;;15.27;10.50;;;;;;;;;;5017651;28;20221;-77
2023/12/15 08:54:23;;;;;;;43.93;22.40;;;;;;;;;;5043549;28;20318;-78
2023/12/15 08:56:51;;;;;;;13.20;8.93;;;;;;;;;;5039966;28;20226;-78
2023/12/15 08:59:20;;;;;;;15.47;12.53;;;;;;;;;;5036925;28;20811;-75
2023/12/15 09:01:48;;;;;;;14.30;10.40;;;;;;;;;;5044212;28;20244;-78
2023/12/15 09:04:16;;;;;;;17.47;12.90;;;;;;;;;;5035310;28;20224;-79
2023/12/15 09:06:43;;;;;;;13.00;10.10;;;;;;;;;;5036899;28;21043;-78
2023/12/15 09:09:14;;;;;;;17.50;11.97;;;;;;;;;;5020491;28;20424;-80
2023/12/15 09:11:41;;;;;;;16.67;12.73;;;;;;;;;;5033654;28;20198;-78
2023/12/15 09:14:09;;;;;;;12.57;9.80;;;;;;;;;;5041962;28;20223;-82
2023/12/15 09:16:36;;;;;;;16.30;12.53;;;;;;;;;;5022423;28;20230;-79
2023/12/15 09:19:03;;;;;;;13.07;9.80;;;;;;;;;;5039531;28;20221;-78
2023/12/15 09:21:31;;;;;;;18.07;14.73;;;;;;;;;;5038952;28;20576;-80
2023/12/15 09:23:58;;;;;;;30.23;21.23;;;;;;;;;;5031069;28;20218;-77
2023/12/15 09:26:26;;;;;;;25.30;17.47;;;;;;;;;;5042546;28;20213;-78
2023/12/15 09:28:54;;;;;;;25.37;18.30;;;;;;;;;;5040952;28;20736;-80
2023/12/15 09:31:21;;;;;;;18.50;13.20;;;;;;;;;;5044055;28;20254;-79
2023/12/15 09:33:48;;;;;;;;;;;;;;;;;;5042523;28;20291;-79
2023/12/15 09:36:17;;;;;;;18.45;14.45;;;;;;;;;;5039711;28;19990;-78
2023/12/15 09:38:44;;;;;;;13.13;11.50;;;;;;;;;;5041697;28;20650;-79
2023/12/15 09:41:12;;;;;;;10.80;8.97;;;;;;;;;;5036394;28;20198;-76
2023/12/15 09:43:39;;;;;;;22.17;15.43;;;;;;;;;;5025411;28;20226;-77
2023/12/15 09:46:07;;;;;;;16.10;10.50;;;;;;;;;;5042525;28;20233;-76
2023/12/15 09:48:35;;;;;;;13.63;11.30;;;;;;;;;;5040791;28;20210;-75
2023/12/15 09:51:05;;;;;;;13.37;10.73;;;;;;;;;;5036909;28;20704;-77
2023/12/15 09:53:35;;;;;;;12.40;11.10;;;;;;;;;;5044527;28;20230;-76
2023/12/15 09:56:03;;;;;;;13.70;11.37;;;;;;;;;;5039041;28;20210;-82
2023/12/15 09:58:30;;;;;;;15.87;12.57;;;;;;;;;;5037917;28;20238;-80
2023/12/15 10:00:57;;;;;;;17.63;13.57;;;;;;;;;;5028285;28;20510;-79
2023/12/15 10:03:24;;;;;;;17.20;11.77;;;;;;;;;;5042913;28;20219;-78
2023/12/15 10:05:52;;;;;;;11.20;9.53;;;;;;;;;;5041220;28;21881;-80
2023/12/15 10:08:23;;;;;;;12.80;9.90;;;;;;;;;;5027324;28;20248;-78
2023/12/15 10:10:51;;;;;;;12.93;9.27;;;;;;;;;;5043243;28;20226;-77
2023/12/15 10:13:19;;;;;;;12.60;10.70;;;;;;;;;;5037865;28;20230;-78
2023/12/15 10:15:50;;;;;;;13.33;10.67;;;;;;;;;;5036574;28;20225;-77
2023/12/15 10:18:18;;;;;;;10.83;8.97;;;;;;;;;;5039826;28;20894;-78
2023/12/15 10:21:01;;;;;;;16.07;11.13;;;;;;;;;;5040127;28;20202;-80
2023/12/15 10:23:29;;;;;;;13.70;9.57;;;;;;;;;;5034006;28;20739;-80
2023/12/15 10:26:00;;;;;;;10.43;8.60;;;;;;;;;;5043785;28;20204;-78
2023/12/15 10:28:34;;;;;;;9.17;7.77;;;;;;;;;;5039194;28;20226;-81
2023/12/15 10:31:02;;;;;;;12.10;9.03;;;;;;;;;;5033745;28;20259;-79
2023/12/15 10:33:29;;;;;;;11.20;8.13;;;;;;;;;;5021729;28;20233;-80
2023/12/15 10:35:57;;;;;;;11.10;9.20;;;;;;;;;;5041959;28;20234;-81
2023/12/15 10:38:25;;;;;;;10.57;7.90;;;;;;;;;;5034280;28;20249;-78
2023/12/15 10:40:53;;;;;;;10.43;8.97;;;;;;;;;;5016986;28;20198;-79
2023/12/15 10:43:21;;;;;;;10.17;8.63;;;;;;;;;;5043666;28;20234;-80
2023/12/15 10:45:50;;;;;;;10.10;7.60;;;;;;;;;;5041856;28;20207;-77
2023/12/15 10:48:18;;;;;;;10.63;8.83;;;;;;;;;;5045666;28;20562;-77
2023/12/15 10:50:46;;;;;;;9.37;7.70;;;;;;;;;;5042427;28;20641;-80
2023/12/15 10:53:17;;;;;;;10.17;7.93;;;;;;;;;;5022737;28;20249;-79
2023/12/15 10:55:46;;;;;;;8.97;7.20;;;;;;;;;;5022089;28;20210;-78
2023/12/15 10:58:14;;;;;;;8.80;7.33;;;;;;;;;;5044216;28;20765;-79
2023/12/15 11:00:42;;;;;;;9.60;7.03;;;;;;;;;;5036270;28;20233;-74
2023/12/15 11:03:10;;;;;;;8.50;7.07;;;;;;;;;;5019933;28;20205;-81
2023/12/15 11:05:41;;;;;;;9.30;7.70;;;;;;;;;;5040953;28;20639;-76
2023/12/15 11:08:10;;;;;;;9.03;7.03;;;;;;;;;;5036467;28;20890;-76
2023/12/15 11:10:37;;;;;;;8.77;7.07;;;;;;;;;;5025065;28;20214;-80
2023/12/15 11:13:04;;;;;;;8.00;6.97;;;;;;;;;;5029446;28;20217;-79
2023/12/15 11:15:32;;;;;;;9.87;7.03;;;;;;;;;;5039969;28;20687;-79
2023/12/15 11:18:00;;;;;;;7.07;6.10;;;;;;;;;;5034563;28;20240;-77
2023/12/15 11:20:31;;;;;;;9.27;8.20;;;;;;;;;;5030589;28;20202;-79
2023/12/15 11:22:59;;;;;;;24.30;16.33;;;;;;;;;;5031549;28;21543;-78
2023/12/15 11:25:31;;;;;;;10.07;8.00;;;;;;;;;;5043146;28;20202;-77
2023/12/15 11:28:09;;;;;;;12.50;9.40;;;;;;;;;;5037705;28;20679;-79
2023/12/15 11:30:39;;;;;;;7.47;6.23;;;;;;;;;;5031054;28;20688;-77
2023/12/15 11:33:25;;;;;;;8.17;6.83;;;;;;;;;;5036340;28;20206;-78
2023/12/15 11:36:09;;;;;;;6.33;5.70;;;;;;;;;;5010359;28;20198;-78
2023/12/15 11:38:37;;;;;;;7.43;5.77;;;;;;;;;;5035487;28;20308;-78
2023/12/15 11:41:06;;;;;;;6.97;5.40;;;;;;;;;;5030202;28;20831;-78
2023/12/15 11:43:36;;;;;;;6.77;5.87;;;;;;;;;;5013796;28;20288;-80
2023/12/15 11:46:04;;;;;;;6.00;5.33;;;;;;;;;;5031874;28;20665;-79
2023/12/15 11:48:35;;;;;;;6.27;5.67;;;;;;;;;;5032599;28;20580;-79
2023/12/15 11:51:03;;;;;;;6.70;5.60;;;;;;;;;;5041120;28;20214;-79
2023/12/15 11:53:32;;;;;;;7.20;6.03;;;;;;;;;;5036287;28;20222;-80
2023/12/15 11:56:01;;;;;;;8.63;5.57;;;;;;;;;;5046145;28;20217;-79
2023/12/15 11:58:29;;;;;;;18.40;7.33;;;;;;;;;;5054610;28;20286;-81
2023/12/15 12:00:56;;;;;;;8.03;5.77;;;;;;;;;;5058864;28;20209;-79
2023/12/15 12:03:24;;;;;;;5.83;4.90;;;;;;;;;;5058733;28;20225;-79
2023/12/15 12:05:53;;;;;;;6.80;5.07;;;;;;;;;;5065410;28;20266;-79
2023/12/15 12:08:23;;;;;;;5.60;5.00;;;;;;;;;;5048041;28;20192;-81
2023/12/15 12:10:54;;;;;;;5.57;4.97;;;;;;;;;;5068029;28;20195;-82
2023/12/15 12:13:21;;;;;;;7.73;5.50;;;;;;;;;;5065678;28;20237;-78
2023/12/15 12:15:52;;;;;;;6.20;5.60;;;;;;;;;;5059593;28;20229;-80
2023/12/15 12:18:20;;;;;;;5.63;5.07;;;;;;;;;;5034864;28;20658;-80
2023/12/15 12:20:48;;;;;;;6.10;5.20;;;;;;;;;;5040651;28;20236;-79
2023/12/15 12:23:16;;;;;;;7.63;4.70;;;;;;;;;;5038444;28;20673;-80
2023/12/15 12:25:55;;;;;;;5.70;5.03;;;;;;;;;;5043001;28;20194;-79
2023/12/15 12:28:23;;;;;;;4.80;4.40;;;;;;;;;;5038452;28;20205;-79
2023/12/15 12:30:50;;;;;;;5.27;4.77;;;;;;;;;;5043129;28;20226;-80
2023/12/15 12:33:19;;;;;;;6.10;4.70;;;;;;;;;;5035808;28;20314;-81
2023/12/15 12:35:47;;;;;;;6.37;5.37;;;;;;;;;;5025854;28;20238;-78
2023/12/15 12:38:14;;;;;;;5.77;5.17;;;;;;;;;;5044613;28;20234;-80
2023/12/15 12:40:42;;;;;;;4.80;4.40;;;;;;;;;;5040365;28;20664;-79
2023/12/15 12:43:10;;;;;;;5.47;4.77;;;;;;;;;;5018429;28;20202;-79
2023/12/15 12:45:38;;;;;;;5.80;5.20;;;;;;;;;;5044410;28;20267;-78
2023/12/15 12:48:05;;;;;;;6.03;5.13;;;;;;;;;;5038991;28;20649;-79
2023/12/15 12:50:33;;;;;;;5.40;4.90;;;;;;;;;;5025882;28;20206;-79
2023/12/15 12:53:00;;;;;;;7.53;6.57;;;;;;;;;;5021622;28;20213;-80
2023/12/15 12:55:28;;;;;;;7.57;5.03;;;;;;;;;;5036369;28;20202;-80
2023/12/15 12:57:56;;;;;;;7.23;5.87;;;;;;;;;;5039973;28;20287;-81
2023/12/15 13:00:23;;;;;;;5.97;4.40;;;;;;;;;;5039556;28;20284;-78
2023/12/15 13:02:50;;;;;;;6.70;6.00;;;;;;;;;;5036054;28;20207;-81
2023/12/15 13:05:18;;;;;;;10.70;5.17;;;;;;;;;;5035274;28;20198;-78
2023/12/15 13:07:46;;;;;;;5.10;4.60;;;;;;;;;;5042924;28;20229;-78
2023/12/15 13:10:14;;;;;;;7.67;5.13;;;;;;;;;;5044741;28;20217;-79
2023/12/15 13:12:51;;;;;;;6.20;5.30;;;;;;;;;;5037461;28;20466;-79
2023/12/15 13:15:19;;;;;;;5.23;4.60;;;;;;;;;;5029052;28;20220;-80
2023/12/15 13:17:46;;;;;;;5.30;4.80;;;;;;;;;;5042126;28;20238;-79
2023/12/15 13:20:14;;;;;;;5.27;4.77;;;;;;;;;;5036898;28;20202;-78
2023/12/15 13:22:41;;;;;;;5.07;4.67;;;;;;;;;;5034370;28;20251;-78
2023/12/15 13:25:15;;;;;;;6.13;4.90;;;;;;;;;;5036042;28;20237;-79
2023/12/15 13:27:42;;;;;;;6.43;5.10;;;;;;;;;;5013128;28;20676;-79
2023/12/15 13:30:11;;;;;;;5.47;4.87;;;;;;;;;;5011597;28;20217;-76
2023/12/15 13:32:38;;;;;;;7.03;4.70;;;;;;;;;;5028209;28;20205;-77
2023/12/15 13:35:08;;;;;;;5.50;5.00;;;;;;;;;;5032571;28;20853;-77
2023/12/15 13:37:35;;;;;;;5.00;4.57;;;;;;;;;;5018400;28;20209;-79
2023/12/15 13:40:03;;;;;;;5.40;4.20;;;;;;;;;;5031099;28;20289;-77
2023/12/15 13:42:31;;;;;;;5.37;3.60;;;;;;;;;;5020926;28;20213;-78
2023/12/15 13:44:58;;;;;;;5.10;4.60;;;;;;;;;;5038539;28;20222;-80
2023/12/15 13:47:25;;;;;;;4.40;4.00;;;;;;;;;;5037816;28;20202;-78
2023/12/15 13:49:53;;;;;;;5.53;4.40;;;;;;;;;;5030396;28;20233;-82
2023/12/15 13:52:20;;;;;;;4.07;3.73;;;;;;;;;;5039291;28;20206;-77
2023/12/15 13:54:48;;;;;;;4.43;3.80;;;;;;;;;;5027284;28;20234;-80
2023/12/15 13:57:15;;;;;;;3.97;3.57;;;;;;;;;;5016718;28;20214;-79
2023/12/15 13:59:42;;;;;;;3.50;3.20;;;;;;;;;;5031324;28;20275;-80
2023/12/15 14:02:09;;;;;;;3.83;3.07;;;;;;;;;;5028724;28;20234;-79
2023/12/15 14:04:37;;;;;;;3.53;3.23;;;;;;;;;;5018241;28;20229;-79
2023/12/15 14:07:04;;;;;;;3.60;2.90;;;;;;;;;;5016462;28;20283;-79
2023/12/15 14:09:32;;;;;;;3.27;3.00;;;;;;;;;;5034898;28;20209;-78
2023/12/15 14:11:59;;;;;;;3.20;2.90;;;;;;;;;;5025269;28;20667;-77
2023/12/15 14:14:26;;;;;;;3.50;3.20;;;;;;;;;;5034200;28;20276;-79
2023/12/15 14:16:55;;;;;;;3.50;3.20;;;;;;;;;;5024784;28;20206;-79
2023/12/15 14:19:23;;;;;;;4.97;3.30;;;;;;;;;;5028088;28;20234;-78
2023/12/15 14:21:51;;;;;;;4.10;3.57;;;;;;;;;;5032657;28;20217;-77
2023/12/15 14:24:18;;;;;;;3.63;3.30;;;;;;;;;;5030869;28;20709;-78
2023/12/15 14:26:46;;;;;;;3.87;2.83;;;;;;;;;;5016516;28;21043;-78
2023/12/15 14:29:14;;;;;;;3.17;2.90;;;;;;;;;;5031133;28;20214;-81
2023/12/15 14:31:41;;;;;;;3.33;3.03;;;;;;;;;;5034162;28;20206;-80
2023/12/15 14:34:08;;;;;;;3.70;3.40;;;;;;;;;;5030860;28;20238;-82
2023/12/15 14:36:37;;;;;;;3.93;3.50;;;;;;;;;;5032823;28;20206;-78
2023/12/15 14:39:05;;;;;;;4.07;3.70;;;;;;;;;;5029529;28;20678;-79
2023/12/15 14:41:36;;;;;;;3.57;3.27;;;;;;;;;;5032847;28;20240;-77